TimeCDT,TemperatureF,Dew PointF,Humidity,Sea Level PressureIn,VisibilityMPH,Wind Direction,Wind SpeedMPH,Gust SpeedMPH,PrecipitationIn,Events,Conditions,WindDirDegrees,DateUTC
12:12 AM,25.7,19.8,78,29.96,10.0,South,3.5,9.2,N/A,,Overcast,170,2014-03-13 05:12:00
12:31 AM,25.7,20.3,80,29.95,10.0,SSE,9.2,-,N/A,,Overcast,160,2014-03-13 05:31:00
12:52 AM,25.7,21.0,82,29.94,10.0,South,9.2,-,N/A,,Overcast,170,2014-03-13 05:52:00
1:11 AM,25.7,21.6,84,29.93,10.0,SSE,10.4,-,N/A,,Overcast,160,2014-03-13 06:11:00
1:32 AM,26.1,21.7,84,29.93,10.0,South,11.5,-,N/A,,Overcast,170,2014-03-13 06:32:00
1:52 AM,26.2,22.1,84,29.92,10.0,South,9.2,-,N/A,,Overcast,170,2014-03-13 06:52:00
2:12 AM,26.2,22.1,84,29.91,10.0,SSE,10.4,-,N/A,,Overcast,160,2014-03-13 07:12:00
2:32 AM,26.4,22.5,85,29.89,10.0,South,10.4,-,N/A,,Overcast,170,2014-03-13 07:32:00
2:52 AM,26.4,22.8,86,29.89,10.0,South,11.5,-,N/A,,Mostly Cloudy,170,2014-03-13 07:52:00
3:12 AM,26.4,23.0,87,29.87,10.0,South,9.2,-,N/A,,Scattered Clouds,170,2014-03-13 08:12:00
3:32 AM,26.6,23.7,89,29.86,10.0,South,9.2,-,N/A,,Clear,170,2014-03-13 08:32:00
3:51 AM,26.6,23.9,90,29.86,10.0,South,6.9,-,N/A,,Clear,180,2014-03-13 08:51:00
4:12 AM,26.6,24.3,91,29.85,10.0,South,5.8,-,N/A,,Clear,170,2014-03-13 09:12:00
4:32 AM,26.6,24.6,92,29.84,10.0,South,8.1,-,N/A,,Clear,170,2014-03-13 09:32:00
4:52 AM,26.6,24.8,93,29.84,10.0,South,8.1,-,N/A,,Clear,180,2014-03-13 09:52:00
5:12 AM,26.6,25.2,94,29.83,10.0,South,5.8,-,N/A,,Clear,190,2014-03-13 10:12:00
5:32 AM,27.0,25.3,94,29.82,10.0,South,5.8,-,N/A,,Clear,180,2014-03-13 10:32:00
5:52 AM,27.1,25.7,94,29.81,10.0,South,4.6,-,N/A,,Clear,180,2014-03-13 10:52:00
6:12 AM,27.5,26.1,94,29.81,7.0,South,5.8,-,N/A,,Clear,190,2014-03-13 11:12:00
6:32 AM,27.5,25.9,94,29.81,7.0,SSW,3.5,-,N/A,,Clear,200,2014-03-13 11:32:00
6:52 AM,27.1,25.7,94,29.80,7.0,Calm,Calm,-,N/A,,Clear,0,2014-03-13 11:52:00
7:12 AM,27.1,25.7,94,29.79,7.0,Calm,Calm,-,N/A,,Clear,0,2014-03-13 12:12:00
7:32 AM,26.6,25.5,96,29.79,7.0,Calm,Calm,-,N/A,,Clear,0,2014-03-13 12:32:00
7:52 AM,27.0,25.7,95,29.79,5.0,Calm,Calm,-,N/A,,Clear,0,2014-03-13 12:52:00
8:12 AM,27.5,26.4,96,29.79,5.0,Calm,Calm,-,N/A,,Clear,0,2014-03-13 13:12:00
8:32 AM,27.7,26.4,95,29.79,5.0,Calm,Calm,-,N/A,,Clear,0,2014-03-13 13:32:00
8:52 AM,27.7,26.6,96,29.79,5.0,Calm,Calm,-,N/A,,Clear,0,2014-03-13 13:52:00
9:12 AM,30.4,28.6,93,29.78,7.0,Calm,Calm,-,N/A,,Clear,0,2014-03-13 14:12:00
9:32 AM,33.4,30.2,88,29.77,10.0,WSW,6.9,-,N/A,,Clear,240,2014-03-13 14:32:00
9:52 AM,35.1,30.7,84,29.77,10.0,Calm,Calm,-,N/A,,Clear,0,2014-03-13 14:52:00
10:12 AM,36.1,30.9,81,29.76,10.0,SW,10.4,-,N/A,,Clear,230,2014-03-13 15:12:00
10:32 AM,36.9,31.1,80,29.76,10.0,WSW,9.2,-,N/A,,Clear,240,2014-03-13 15:32:00
10:52 AM,37.8,31.6,79,29.75,10.0,WSW,9.2,-,N/A,,Clear,240,2014-03-13 15:52:00
11:12 AM,39.2,32.0,75,29.74,10.0,WSW,8.1,-,N/A,,Clear,240,2014-03-13 16:12:00
11:32 AM,39.4,32.0,75,29.74,10.0,WSW,10.4,-,N/A,,Clear,240,2014-03-13 16:32:00
11:52 AM,41.4,32.4,70,29.73,10.0,WSW,9.2,-,N/A,,Clear,240,2014-03-13 16:52:00
12:13 PM,43.0,33.1,68,29.72,10.0,Calm,Calm,-,N/A,,Clear,0,2014-03-13 17:13:00
12:32 PM,43.7,32.5,65,29.72,10.0,SSW,6.9,-,N/A,,Clear,200,2014-03-13 17:32:00
12:52 PM,43.9,33.1,66,29.71,10.0,SSW,9.2,-,N/A,,Clear,200,2014-03-13 17:52:00
1:13 PM,44.6,33.8,66,29.70,10.0,SSW,8.1,-,N/A,,Clear,200,2014-03-13 18:13:00
1:32 PM,45.0,33.8,65,29.69,10.0,SSW,9.2,-,N/A,,Clear,210,2014-03-13 18:32:00
1:52 PM,46.0,33.8,62,29.68,10.0,SSW,5.8,-,N/A,,Clear,200,2014-03-13 18:52:00
2:12 PM,47.1,35.1,63,29.67,10.0,SSW,9.2,-,N/A,,Clear,200,2014-03-13 19:12:00
2:32 PM,48.2,36.3,63,29.66,10.0,SSW,9.2,-,N/A,,Clear,210,2014-03-13 19:32:00
2:52 PM,49.3,37.0,63,29.65,10.0,SSW,11.5,17.3,N/A,,Clear,210,2014-03-13 19:52:00
3:11 PM,49.8,38.3,65,29.64,10.0,SSW,12.7,18.4,N/A,,Clear,200,2014-03-13 20:11:00
3:32 PM,50.4,39.2,66,29.62,10.0,SSW,10.4,17.3,N/A,,Clear,200,2014-03-13 20:32:00
3:52 PM,51.3,38.1,61,29.62,10.0,SSW,11.5,-,N/A,,Clear,210,2014-03-13 20:52:00
4:12 PM,51.3,37.8,60,29.62,10.0,SSW,12.7,17.3,N/A,,Clear,210,2014-03-13 21:12:00
4:32 PM,51.4,37.6,59,29.61,10.0,SSW,12.7,19.6,N/A,,Clear,210,2014-03-13 21:32:00
4:52 PM,51.4,38.3,61,29.60,10.0,SSW,12.7,-,N/A,,Clear,200,2014-03-13 21:52:00
5:12 PM,51.4,38.3,61,29.59,10.0,SSW,12.7,18.4,N/A,,Clear,210,2014-03-13 22:12:00
5:32 PM,51.8,37.0,57,29.59,10.0,SSW,12.7,-,N/A,,Clear,210,2014-03-13 22:32:00
5:52 PM,51.3,37.8,60,29.58,10.0,SSW,10.4,18.4,N/A,,Clear,210,2014-03-13 22:52:00
6:12 PM,50.4,38.3,63,29.57,10.0,SSW,9.2,-,N/A,,Clear,210,2014-03-13 23:12:00
6:32 PM,50.0,38.8,66,29.57,10.0,SSW,9.2,-,N/A,,Clear,210,2014-03-13 23:32:00
6:52 PM,48.4,39.0,70,29.56,10.0,SSW,10.4,-,N/A,,Clear,200,2014-03-13 23:52:00
7:12 PM,47.3,38.8,72,29.56,10.0,Calm,Calm,-,N/A,,Clear,0,2014-03-14 00:12:00
7:33 PM,46.4,38.8,75,29.56,10.0,SSW,9.2,-,N/A,,Clear,200,2014-03-14 00:33:00
7:52 PM,45.9,39.2,78,29.55,10.0,South,10.4,-,N/A,,Clear,190,2014-03-14 00:52:00
8:12 PM,45.9,39.2,78,29.55,10.0,South,11.5,-,N/A,,Clear,190,2014-03-14 01:12:00
8:33 PM,45.3,38.3,76,29.55,10.0,South,11.5,-,N/A,,Clear,190,2014-03-14 01:33:00
8:52 PM,45.1,38.7,78,29.54,10.0,South,11.5,-,N/A,,Clear,190,2014-03-14 01:52:00
9:12 PM,44.8,38.8,80,29.54,10.0,SSW,11.5,-,N/A,,Clear,200,2014-03-14 02:12:00
9:32 PM,45.0,38.8,79,29.53,10.0,SSW,12.7,-,N/A,,Clear,200,2014-03-14 02:32:00
9:52 PM,44.8,38.5,79,29.53,10.0,SSW,10.4,-,N/A,,Clear,210,2014-03-14 02:52:00
10:11 PM,43.9,37.4,78,29.53,10.0,WSW,4.6,-,N/A,,Clear,240,2014-03-14 03:11:00
10:32 PM,41.4,36.1,82,29.52,10.0,WSW,6.9,-,N/A,,Clear,250,2014-03-14 03:32:00
10:52 PM,40.6,35.2,81,29.52,10.0,West,6.9,-,N/A,,Clear,270,2014-03-14 03:52:00
11:12 PM,39.6,34.9,83,29.53,10.0,West,11.5,-,N/A,,Clear,260,2014-03-14 04:12:00
11:32 PM,40.1,34.7,81,29.53,10.0,West,10.4,-,N/A,,Clear,270,2014-03-14 04:32:00
11:52 PM,41.0,34.2,77,29.53,10.0,West,12.7,-,N/A,,Clear,280,2014-03-14 04:52:00